Pagina principală
METAR-TAF:

METAR-TAF

Aeroporturi :

Medellín, Columbia

Latitudine: 06-13N, longitudine: 075-36W, elevație: 1490 m

Observații meteo curente

Raportul a fost făcut în urmă cu 6 ore și 1 de minute, la 23:00 UTC
Vânt 10 kt de la Est, variabil între Est/Nord-est și Sud/Sud-est
Temperatură 27°C
Umiditate 39%
Presiune 1018 hPa
Vizibilitate de 10 km sau mai mult
Nori puțini la o înălțime de 3500 picior

METAR: SKMD 202300Z 09010KT 060V150 9999 FEW035 27/12 Q1018

Ora: 00:01 (05:01 UTC)


TAF: lipsă

Observații și prognoze meteo pentru peste 4.000 de aeroporturi (rapoarte METAR și TAF).

Stațiile disponibile sunt reprezentate pe hartă prin puncte galbene și roșii.

Țineți indicatorul mouse-ului pe punctul dorit pentru a vedea denumirea stației.

Apoi, faceți clic pentru a vedea observațiile și prognozele meteorologice.

Pentru a schimba harta: Pentru mărire, faceți clic pe butoanele verzi cu cruce neagră; pentru micșorare, pe butonul verde cu o liniuță; pentru hărți învecinate, pe săgețile verzi.


METAR-TAF: